Terminal Aerodrome Forecast
Issued by NWS

Home | Current Version | Previous Version | Text Only | Print | Product List | Glossary On
Versions: 1 2 3 4 5 6 7 8 9 10 11 12 13 14 15 16 17 18 19 20 21 22 23 24 25 26 27 28 29 30 31 32 33 34 35 36
000
FTAK31 PAFA 210848 AAA
TAFAQT
TAF AMD
PAQT 210848Z 2109/2206 05008KT P6SM OVC030
     FM211400 05008KT P6SM OVC008
     FM211800 VRB05KT P6SM SCT010 OVC200=

USA.gov is the U.S. government's official web portal to all federal, state and local government web resources and services.